sensor_id;sensor_type;location;lat;lon;timestamp;temperature;humidity
42201;DHT22;27869;51.442;7.540;2024-03-17T00:00:06;5.00;99.90
42201;DHT22;27869;51.442;7.540;2024-03-17T00:02:35;5.00;99.90
42201;DHT22;27869;51.442;7.540;2024-03-17T00:05:03;4.90;99.90
42201;DHT22;27869;51.442;7.540;2024-03-17T00:07:31;4.90;99.90
42201;DHT22;27869;51.442;7.540;2024-03-17T00:09:58;4.90;99.90
42201;DHT22;27869;51.442;7.540;2024-03-17T00:12:23;4.90;99.90
42201;DHT22;27869;51.442;7.540;2024-03-17T00:14:51;4.80;99.90
42201;DHT22;27869;51.442;7.540;2024-03-17T00:17:17;4.80;99.90
42201;DHT22;27869;51.442;7.540;2024-03-17T00:19:46;4.70;99.90
42201;DHT22;27869;51.442;7.540;2024-03-17T00:22:12;4.70;99.90
42201;DHT22;27869;51.442;7.540;2024-03-17T00:24:41;4.70;99.90
42201;DHT22;27869;51.442;7.540;2024-03-17T00:27:08;4.60;99.90
42201;DHT22;27869;51.442;7.540;2024-03-17T00:29:37;4.60;99.90
42201;DHT22;27869;51.442;7.540;2024-03-17T00:32:04;4.60;99.90
42201;DHT22;27869;51.442;7.540;2024-03-17T00:34:30;4.50;99.90
42201;DHT22;27869;51.442;7.540;2024-03-17T00:36:57;4.50;99.90
42201;DHT22;27869;51.442;7.540;2024-03-17T00:39:27;4.50;99.90
42201;DHT22;27869;51.442;7.540;2024-03-17T00:41:55;4.50;99.90
42201;DHT22;27869;51.442;7.540;2024-03-17T00:44:21;4.50;99.90
42201;DHT22;27869;51.442;7.540;2024-03-17T00:46:48;4.50;99.90
42201;DHT22;27869;51.442;7.540;2024-03-17T00:49:13;4.40;99.90
42201;DHT22;27869;51.442;7.540;2024-03-17T00:51:40;4.40;99.90
42201;DHT22;27869;51.442;7.540;2024-03-17T00:54:08;4.40;99.90
42201;DHT22;27869;51.442;7.540;2024-03-17T00:56:35;4.30;99.90
42201;DHT22;27869;51.442;7.540;2024-03-17T00:59:04;4.30;99.90
42201;DHT22;27869;51.442;7.540;2024-03-17T01:01:30;4.30;99.90
42201;DHT22;27869;51.442;7.540;2024-03-17T01:03:56;4.30;99.90
42201;DHT22;27869;51.442;7.540;2024-03-17T01:06:22;4.20;99.90
42201;DHT22;27869;51.442;7.540;2024-03-17T01:08:49;4.20;99.90
42201;DHT22;27869;51.442;7.540;2024-03-17T01:11:17;4.20;99.90
42201;DHT22;27869;51.442;7.540;2024-03-17T01:13:44;4.20;99.90
42201;DHT22;27869;51.442;7.540;2024-03-17T01:16:12;4.10;99.90
42201;DHT22;27869;51.442;7.540;2024-03-17T01:18:39;4.10;99.90
42201;DHT22;27869;51.442;7.540;2024-03-17T01:21:05;4.10;99.90
42201;DHT22;27869;51.442;7.540;2024-03-17T01:23:32;4.00;99.90
42201;DHT22;27869;51.442;7.540;2024-03-17T01:25:58;4.00;99.90
42201;DHT22;27869;51.442;7.540;2024-03-17T01:28:25;4.00;99.90
42201;DHT22;27869;51.442;7.540;2024-03-17T01:30:52;3.90;99.90
42201;DHT22;27869;51.442;7.540;2024-03-17T01:33:20;3.90;99.90
42201;DHT22;27869;51.442;7.540;2024-03-17T01:35:46;3.90;99.90
42201;DHT22;27869;51.442;7.540;2024-03-17T01:38:13;3.90;99.90
42201;DHT22;27869;51.442;7.540;2024-03-17T01:40:39;3.80;99.90
42201;DHT22;27869;51.442;7.540;2024-03-17T01:43:09;3.80;99.90
42201;DHT22;27869;51.442;7.540;2024-03-17T01:45:35;3.80;99.90
42201;DHT22;27869;51.442;7.540;2024-03-17T01:48:03;3.80;99.90
42201;DHT22;27869;51.442;7.540;2024-03-17T01:50:33;3.70;99.90
42201;DHT22;27869;51.442;7.540;2024-03-17T01:53:05;3.70;99.90
42201;DHT22;27869;51.442;7.540;2024-03-17T01:55:32;3.60;99.90
42201;DHT22;27869;51.442;7.540;2024-03-17T01:57:59;3.60;99.90
42201;DHT22;27869;51.442;7.540;2024-03-17T02:00:25;3.60;99.90
42201;DHT22;27869;51.442;7.540;2024-03-17T02:02:54;3.50;99.90
42201;DHT22;27869;51.442;7.540;2024-03-17T02:05:20;3.50;99.90
42201;DHT22;27869;51.442;7.540;2024-03-17T02:07:48;3.50;99.90
42201;DHT22;27869;51.442;7.540;2024-03-17T02:10:15;3.40;99.90
42201;DHT22;27869;51.442;7.540;2024-03-17T02:12:42;3.40;99.90
42201;DHT22;27869;51.442;7.540;2024-03-17T02:15:09;3.40;99.90
42201;DHT22;27869;51.442;7.540;2024-03-17T02:17:35;3.30;99.90
42201;DHT22;27869;51.442;7.540;2024-03-17T02:20:02;3.30;99.90
42201;DHT22;27869;51.442;7.540;2024-03-17T02:22:34;3.30;99.90
42201;DHT22;27869;51.442;7.540;2024-03-17T02:25:00;3.30;99.90
42201;DHT22;27869;51.442;7.540;2024-03-17T02:27:27;3.20;99.90
42201;DHT22;27869;51.442;7.540;2024-03-17T02:29:53;3.20;99.90
42201;DHT22;27869;51.442;7.540;2024-03-17T02:32:20;3.20;99.90
42201;DHT22;27869;51.442;7.540;2024-03-17T02:34:48;3.20;99.90
42201;DHT22;27869;51.442;7.540;2024-03-17T02:37:15;3.10;99.90
42201;DHT22;27869;51.442;7.540;2024-03-17T02:39:42;3.10;99.90
42201;DHT22;27869;51.442;7.540;2024-03-17T02:42:10;3.10;99.90
42201;DHT22;27869;51.442;7.540;2024-03-17T02:44:38;3.10;99.90
42201;DHT22;27869;51.442;7.540;2024-03-17T02:47:06;3.00;99.90
42201;DHT22;27869;51.442;7.540;2024-03-17T02:49:34;3.00;99.90
42201;DHT22;27869;51.442;7.540;2024-03-17T02:52:03;3.00;99.90
42201;DHT22;27869;51.442;7.540;2024-03-17T02:54:31;3.00;99.90
42201;DHT22;27869;51.442;7.540;2024-03-17T02:56:59;2.90;99.90
42201;DHT22;27869;51.442;7.540;2024-03-17T02:59:29;2.90;99.90
42201;DHT22;27869;51.442;7.540;2024-03-17T03:01:56;2.90;99.90
42201;DHT22;27869;51.442;7.540;2024-03-17T03:04:23;2.90;99.90
42201;DHT22;27869;51.442;7.540;2024-03-17T03:06:50;2.90;99.90
42201;DHT22;27869;51.442;7.540;2024-03-17T03:09:17;2.80;99.90
42201;DHT22;27869;51.442;7.540;2024-03-17T03:11:51;2.80;99.90
42201;DHT22;27869;51.442;7.540;2024-03-17T03:14:19;2.80;99.90
42201;DHT22;27869;51.442;7.540;2024-03-17T03:16:47;2.80;99.90
42201;DHT22;27869;51.442;7.540;2024-03-17T03:19:15;2.80;99.90
42201;DHT22;27869;51.442;7.540;2024-03-17T03:21:41;2.80;99.90
42201;DHT22;27869;51.442;7.540;2024-03-17T03:24:08;2.80;99.90
42201;DHT22;27869;51.442;7.540;2024-03-17T03:26:35;2.70;99.90
42201;DHT22;27869;51.442;7.540;2024-03-17T03:29:02;2.70;99.90
42201;DHT22;27869;51.442;7.540;2024-03-17T03:31:31;2.70;99.90
42201;DHT22;27869;51.442;7.540;2024-03-17T03:33:58;2.70;99.90
42201;DHT22;27869;51.442;7.540;2024-03-17T03:36:27;2.70;99.90
42201;DHT22;27869;51.442;7.540;2024-03-17T03:38:54;2.70;99.90
42201;DHT22;27869;51.442;7.540;2024-03-17T03:41:23;2.60;99.90
42201;DHT22;27869;51.442;7.540;2024-03-17T03:43:51;2.60;99.90
42201;DHT22;27869;51.442;7.540;2024-03-17T03:46:18;2.60;99.90
42201;DHT22;27869;51.442;7.540;2024-03-17T03:48:46;2.60;99.90
42201;DHT22;27869;51.442;7.540;2024-03-17T03:51:13;2.60;99.90
42201;DHT22;27869;51.442;7.540;2024-03-17T03:53:40;2.50;99.90
42201;DHT22;27869;51.442;7.540;2024-03-17T03:56:08;2.50;99.90
42201;DHT22;27869;51.442;7.540;2024-03-17T03:58:36;2.50;99.90
42201;DHT22;27869;51.442;7.540;2024-03-17T04:01:04;2.50;99.90
42201;DHT22;27869;51.442;7.540;2024-03-17T04:03:31;2.40;99.90
42201;DHT22;27869;51.442;7.540;2024-03-17T04:06:08;2.40;99.90
42201;DHT22;27869;51.442;7.540;2024-03-17T04:08:36;2.40;99.90
42201;DHT22;27869;51.442;7.540;2024-03-17T04:11:05;2.40;99.90
42201;DHT22;27869;51.442;7.540;2024-03-17T04:13:33;2.30;99.90
42201;DHT22;27869;51.442;7.540;2024-03-17T04:16:00;2.30;99.90
42201;DHT22;27869;51.442;7.540;2024-03-17T04:18:29;2.30;99.90
42201;DHT22;27869;51.442;7.540;2024-03-17T04:20:57;2.30;99.90
42201;DHT22;27869;51.442;7.540;2024-03-17T04:23:25;2.30;99.90
42201;DHT22;27869;51.442;7.540;2024-03-17T04:25:52;2.30;99.90
42201;DHT22;27869;51.442;7.540;2024-03-17T04:28:19;2.30;99.90
42201;DHT22;27869;51.442;7.540;2024-03-17T04:30:46;2.20;99.90
42201;DHT22;27869;51.442;7.540;2024-03-17T04:33:13;2.20;99.90
42201;DHT22;27869;51.442;7.540;2024-03-17T04:35:40;2.20;99.90
42201;DHT22;27869;51.442;7.540;2024-03-17T04:38:08;2.20;99.90
42201;DHT22;27869;51.442;7.540;2024-03-17T04:40:40;2.20;99.90
42201;DHT22;27869;51.442;7.540;2024-03-17T04:43:07;2.20;99.90
42201;DHT22;27869;51.442;7.540;2024-03-17T04:45:34;2.20;99.90
42201;DHT22;27869;51.442;7.540;2024-03-17T04:48:01;2.20;99.90
42201;DHT22;27869;51.442;7.540;2024-03-17T04:50:28;2.20;99.90
42201;DHT22;27869;51.442;7.540;2024-03-17T04:52:57;2.20;99.90
42201;DHT22;27869;51.442;7.540;2024-03-17T04:55:24;2.20;99.90
42201;DHT22;27869;51.442;7.540;2024-03-17T04:57:52;2.20;99.90
42201;DHT22;27869;51.442;7.540;2024-03-17T05:00:19;2.20;99.90
42201;DHT22;27869;51.442;7.540;2024-03-17T05:02:46;2.20;99.90
42201;DHT22;27869;51.442;7.540;2024-03-17T05:05:13;2.20;99.90
42201;DHT22;27869;51.442;7.540;2024-03-17T05:07:40;2.20;99.90
42201;DHT22;27869;51.442;7.540;2024-03-17T05:10:07;2.30;99.90
42201;DHT22;27869;51.442;7.540;2024-03-17T05:12:34;2.30;99.90
42201;DHT22;27869;51.442;7.540;2024-03-17T05:15:03;2.30;99.90
42201;DHT22;27869;51.442;7.540;2024-03-17T05:17:31;2.30;99.90
42201;DHT22;27869;51.442;7.540;2024-03-17T05:19:57;2.30;99.90
42201;DHT22;27869;51.442;7.540;2024-03-17T05:22:24;2.30;99.90
42201;DHT22;27869;51.442;7.540;2024-03-17T05:24:51;2.30;99.90
42201;DHT22;27869;51.442;7.540;2024-03-17T05:27:19;2.30;99.90
42201;DHT22;27869;51.442;7.540;2024-03-17T05:29:46;2.20;99.90
42201;DHT22;27869;51.442;7.540;2024-03-17T05:32:14;2.20;99.90
42201;DHT22;27869;51.442;7.540;2024-03-17T05:34:41;2.20;99.90
42201;DHT22;27869;51.442;7.540;2024-03-17T05:37:08;2.20;99.90
42201;DHT22;27869;51.442;7.540;2024-03-17T05:39:35;2.20;99.90
42201;DHT22;27869;51.442;7.540;2024-03-17T05:42:02;2.20;99.90
42201;DHT22;27869;51.442;7.540;2024-03-17T05:44:29;2.20;99.90
42201;DHT22;27869;51.442;7.540;2024-03-17T05:47:05;2.10;99.90
42201;DHT22;27869;51.442;7.540;2024-03-17T05:49:35;2.10;99.90
42201;DHT22;27869;51.442;7.540;2024-03-17T05:52:01;2.10;99.90
42201;DHT22;27869;51.442;7.540;2024-03-17T05:54:28;2.10;99.90
42201;DHT22;27869;51.442;7.540;2024-03-17T05:56:55;2.10;99.90
42201;DHT22;27869;51.442;7.540;2024-03-17T05:59:22;2.10;99.90
42201;DHT22;27869;51.442;7.540;2024-03-17T06:01:49;2.10;99.90
42201;DHT22;27869;51.442;7.540;2024-03-17T06:04:16;2.10;99.90
42201;DHT22;27869;51.442;7.540;2024-03-17T06:06:44;2.10;99.90
42201;DHT22;27869;51.442;7.540;2024-03-17T06:09:11;2.10;99.90
42201;DHT22;27869;51.442;7.540;2024-03-17T06:11:43;2.00;99.90
42201;DHT22;27869;51.442;7.540;2024-03-17T06:14:10;2.00;99.90
42201;DHT22;27869;51.442;7.540;2024-03-17T06:16:37;2.00;99.90
42201;DHT22;27869;51.442;7.540;2024-03-17T06:19:04;2.00;99.90
42201;DHT22;27869;51.442;7.540;2024-03-17T06:21:32;2.00;99.90
42201;DHT22;27869;51.442;7.540;2024-03-17T06:24:00;2.00;99.90
42201;DHT22;27869;51.442;7.540;2024-03-17T06:26:27;2.00;99.90
42201;DHT22;27869;51.442;7.540;2024-03-17T06:28:57;2.10;99.90
42201;DHT22;27869;51.442;7.540;2024-03-17T06:31:23;2.00;99.90
42201;DHT22;27869;51.442;7.540;2024-03-17T06:33:50;2.10;99.90
42201;DHT22;27869;51.442;7.540;2024-03-17T06:36:17;2.10;99.90
42201;DHT22;27869;51.442;7.540;2024-03-17T06:38:44;2.10;99.90
42201;DHT22;27869;51.442;7.540;2024-03-17T06:41:12;2.20;99.90
42201;DHT22;27869;51.442;7.540;2024-03-17T06:43:40;2.20;99.90
42201;DHT22;27869;51.442;7.540;2024-03-17T06:46:08;2.20;99.90
42201;DHT22;27869;51.442;7.540;2024-03-17T06:48:36;2.30;99.90
42201;DHT22;27869;51.442;7.540;2024-03-17T06:51:03;2.30;99.90
42201;DHT22;27869;51.442;7.540;2024-03-17T06:53:31;2.40;99.90
42201;DHT22;27869;51.442;7.540;2024-03-17T06:55:59;2.40;99.90
42201;DHT22;27869;51.442;7.540;2024-03-17T06:58:28;2.50;99.90
42201;DHT22;27869;51.442;7.540;2024-03-17T07:00:56;2.50;99.90
42201;DHT22;27869;51.442;7.540;2024-03-17T07:03:24;2.60;99.90
42201;DHT22;27869;51.442;7.540;2024-03-17T07:05:53;2.70;99.90
42201;DHT22;27869;51.442;7.540;2024-03-17T07:08:20;2.80;99.90
42201;DHT22;27869;51.442;7.540;2024-03-17T07:10:58;2.80;99.90
42201;DHT22;27869;51.442;7.540;2024-03-17T07:13:25;2.90;99.90
42201;DHT22;27869;51.442;7.540;2024-03-17T07:15:53;3.00;99.90
42201;DHT22;27869;51.442;7.540;2024-03-17T07:18:20;3.10;99.90
42201;DHT22;27869;51.442;7.540;2024-03-17T07:20:47;3.10;99.90
42201;DHT22;27869;51.442;7.540;2024-03-17T07:23:14;3.20;99.90
42201;DHT22;27869;51.442;7.540;2024-03-17T07:25:42;3.20;99.90
42201;DHT22;27869;51.442;7.540;2024-03-17T07:28:09;3.30;99.90
42201;DHT22;27869;51.442;7.540;2024-03-17T07:30:36;3.40;99.90
42201;DHT22;27869;51.442;7.540;2024-03-17T07:33:04;3.50;99.90
42201;DHT22;27869;51.442;7.540;2024-03-17T07:35:31;3.60;99.90
42201;DHT22;27869;51.442;7.540;2024-03-17T07:37:58;3.70;99.90
42201;DHT22;27869;51.442;7.540;2024-03-17T07:40:25;3.90;99.90
42201;DHT22;27869;51.442;7.540;2024-03-17T07:42:51;4.00;99.90
42201;DHT22;27869;51.442;7.540;2024-03-17T07:45:19;4.10;99.90
42201;DHT22;27869;51.442;7.540;2024-03-17T07:47:45;4.20;99.90
42201;DHT22;27869;51.442;7.540;2024-03-17T07:50:14;4.30;99.90
42201;DHT22;27869;51.442;7.540;2024-03-17T07:52:41;4.40;99.90
42201;DHT22;27869;51.442;7.540;2024-03-17T07:55:08;4.50;99.90
42201;DHT22;27869;51.442;7.540;2024-03-17T07:57:35;4.60;99.90
42201;DHT22;27869;51.442;7.540;2024-03-17T08:00:02;4.70;99.90
42201;DHT22;27869;51.442;7.540;2024-03-17T08:02:29;4.80;99.90
42201;DHT22;27869;51.442;7.540;2024-03-17T08:04:56;4.90;99.90
42201;DHT22;27869;51.442;7.540;2024-03-17T08:07:24;5.10;99.90
42201;DHT22;27869;51.442;7.540;2024-03-17T08:09:52;5.20;99.90
42201;DHT22;27869;51.442;7.540;2024-03-17T08:12:18;5.30;99.90
42201;DHT22;27869;51.442;7.540;2024-03-17T08:14:45;5.50;99.90
42201;DHT22;27869;51.442;7.540;2024-03-17T08:17:12;5.60;99.90
42201;DHT22;27869;51.442;7.540;2024-03-17T08:19:39;5.70;99.90
42201;DHT22;27869;51.442;7.540;2024-03-17T08:22:07;5.80;99.90
42201;DHT22;27869;51.442;7.540;2024-03-17T08:24:35;5.90;99.90
42201;DHT22;27869;51.442;7.540;2024-03-17T08:27:02;6.10;99.90
42201;DHT22;27869;51.442;7.540;2024-03-17T08:29:29;6.20;99.90
42201;DHT22;27869;51.442;7.540;2024-03-17T08:31:56;6.30;99.90
42201;DHT22;27869;51.442;7.540;2024-03-17T08:34:23;6.40;99.90
42201;DHT22;27869;51.442;7.540;2024-03-17T08:36:50;6.60;99.90
42201;DHT22;27869;51.442;7.540;2024-03-17T08:39:17;6.70;99.90
42201;DHT22;27869;51.442;7.540;2024-03-17T08:41:46;6.80;99.90
42201;DHT22;27869;51.442;7.540;2024-03-17T08:44:12;7.00;99.90
42201;DHT22;27869;51.442;7.540;2024-03-17T08:46:39;7.10;99.90
42201;DHT22;27869;51.442;7.540;2024-03-17T08:49:06;7.20;99.90
42201;DHT22;27869;51.442;7.540;2024-03-17T08:51:33;7.30;99.90
42201;DHT22;27869;51.442;7.540;2024-03-17T08:54:00;7.40;99.90
42201;DHT22;27869;51.442;7.540;2024-03-17T08:56:27;7.50;99.90
42201;DHT22;27869;51.442;7.540;2024-03-17T08:58:56;7.60;99.90
42201;DHT22;27869;51.442;7.540;2024-03-17T09:01:23;7.70;99.90
42201;DHT22;27869;51.442;7.540;2024-03-17T09:03:50;7.80;99.90
42201;DHT22;27869;51.442;7.540;2024-03-17T09:06:20;7.80;99.90
42201;DHT22;27869;51.442;7.540;2024-03-17T09:08:47;7.90;99.90
42201;DHT22;27869;51.442;7.540;2024-03-17T09:11:14;8.00;99.90
42201;DHT22;27869;51.442;7.540;2024-03-17T09:13:41;8.10;99.90
42201;DHT22;27869;51.442;7.540;2024-03-17T09:16:10;8.20;99.90
42201;DHT22;27869;51.442;7.540;2024-03-17T09:18:39;8.30;99.90
42201;DHT22;27869;51.442;7.540;2024-03-17T09:21:07;8.40;99.90
42201;DHT22;27869;51.442;7.540;2024-03-17T09:23:34;8.50;99.90
42201;DHT22;27869;51.442;7.540;2024-03-17T09:26:03;8.60;99.90
42201;DHT22;27869;51.442;7.540;2024-03-17T09:28:31;8.70;99.90
42201;DHT22;27869;51.442;7.540;2024-03-17T09:30:58;8.80;99.90
42201;DHT22;27869;51.442;7.540;2024-03-17T09:33:29;9.00;99.90
42201;DHT22;27869;51.442;7.540;2024-03-17T09:35:57;9.10;99.90
42201;DHT22;27869;51.442;7.540;2024-03-17T09:38:26;9.30;99.90
42201;DHT22;27869;51.442;7.540;2024-03-17T09:40:54;9.40;99.90
42201;DHT22;27869;51.442;7.540;2024-03-17T09:43:24;9.60;99.90
42201;DHT22;27869;51.442;7.540;2024-03-17T09:45:51;9.70;99.90
42201;DHT22;27869;51.442;7.540;2024-03-17T09:48:21;9.80;99.90
42201;DHT22;27869;51.442;7.540;2024-03-17T09:50:52;10.00;99.90
42201;DHT22;27869;51.442;7.540;2024-03-17T09:53:23;10.10;99.90
42201;DHT22;27869;51.442;7.540;2024-03-17T09:55:51;10.20;99.90
42201;DHT22;27869;51.442;7.540;2024-03-17T09:58:19;10.30;99.90
42201;DHT22;27869;51.442;7.540;2024-03-17T10:00:46;10.30;99.90
42201;DHT22;27869;51.442;7.540;2024-03-17T10:03:41;10.40;99.90
42201;DHT22;27869;51.442;7.540;2024-03-17T10:06:09;10.50;99.90
42201;DHT22;27869;51.442;7.540;2024-03-17T10:08:44;10.50;99.90
42201;DHT22;27869;51.442;7.540;2024-03-17T10:11:12;10.60;99.90
42201;DHT22;27869;51.442;7.540;2024-03-17T10:13:40;10.60;99.90
42201;DHT22;27869;51.442;7.540;2024-03-17T10:16:22;10.70;99.90
42201;DHT22;27869;51.442;7.540;2024-03-17T10:18:50;10.80;99.90
42201;DHT22;27869;51.442;7.540;2024-03-17T10:21:26;11.00;99.90
42201;DHT22;27869;51.442;7.540;2024-03-17T10:24:07;11.10;99.90
42201;DHT22;27869;51.442;7.540;2024-03-17T10:26:37;11.20;99.90
42201;DHT22;27869;51.442;7.540;2024-03-17T10:29:05;11.30;99.90
42201;DHT22;27869;51.442;7.540;2024-03-17T10:31:32;11.40;99.90
42201;DHT22;27869;51.442;7.540;2024-03-17T10:34:02;11.50;99.90
42201;DHT22;27869;51.442;7.540;2024-03-17T10:36:30;11.50;99.90
42201;DHT22;27869;51.442;7.540;2024-03-17T10:38:57;11.60;99.90
42201;DHT22;27869;51.442;7.540;2024-03-17T10:41:25;11.60;99.90
42201;DHT22;27869;51.442;7.540;2024-03-17T10:43:54;11.60;99.90
42201;DHT22;27869;51.442;7.540;2024-03-17T10:46:23;11.60;99.90
42201;DHT22;27869;51.442;7.540;2024-03-17T10:48:53;11.60;99.90
42201;DHT22;27869;51.442;7.540;2024-03-17T10:51:20;11.60;99.90
42201;DHT22;27869;51.442;7.540;2024-03-17T10:53:48;11.60;99.90
42201;DHT22;27869;51.442;7.540;2024-03-17T10:56:19;11.70;99.90
42201;DHT22;27869;51.442;7.540;2024-03-17T10:58:48;11.70;99.90
42201;DHT22;27869;51.442;7.540;2024-03-17T11:01:20;11.70;99.90
42201;DHT22;27869;51.442;7.540;2024-03-17T11:03:47;11.80;99.90
42201;DHT22;27869;51.442;7.540;2024-03-17T11:06:16;11.80;99.90
42201;DHT22;27869;51.442;7.540;2024-03-17T11:08:43;11.80;99.90
42201;DHT22;27869;51.442;7.540;2024-03-17T11:11:12;11.90;99.90
42201;DHT22;27869;51.442;7.540;2024-03-17T11:13:39;11.90;99.90
42201;DHT22;27869;51.442;7.540;2024-03-17T11:16:25;12.00;99.90
42201;DHT22;27869;51.442;7.540;2024-03-17T11:18:53;12.00;99.90
42201;DHT22;27869;51.442;7.540;2024-03-17T11:21:32;12.10;99.90
42201;DHT22;27869;51.442;7.540;2024-03-17T11:24:01;12.20;99.90
42201;DHT22;27869;51.442;7.540;2024-03-17T11:26:33;12.20;99.90
42201;DHT22;27869;51.442;7.540;2024-03-17T11:29:01;12.30;99.90
42201;DHT22;27869;51.442;7.540;2024-03-17T11:31:45;12.40;99.90
42201;DHT22;27869;51.442;7.540;2024-03-17T11:34:34;12.40;99.90
42201;DHT22;27869;51.442;7.540;2024-03-17T11:37:02;12.50;99.90
42201;DHT22;27869;51.442;7.540;2024-03-17T11:39:48;12.50;99.90
42201;DHT22;27869;51.442;7.540;2024-03-17T11:42:19;12.60;99.90
42201;DHT22;27869;51.442;7.540;2024-03-17T11:44:59;12.60;99.90
42201;DHT22;27869;51.442;7.540;2024-03-17T11:47:43;12.70;99.90
42201;DHT22;27869;51.442;7.540;2024-03-17T11:50:10;12.70;99.90
42201;DHT22;27869;51.442;7.540;2024-03-17T11:52:38;12.80;99.90
42201;DHT22;27869;51.442;7.540;2024-03-17T11:55:15;12.80;99.90
42201;DHT22;27869;51.442;7.540;2024-03-17T11:57:43;12.90;99.90
42201;DHT22;27869;51.442;7.540;2024-03-17T12:00:20;12.90;99.90
42201;DHT22;27869;51.442;7.540;2024-03-17T12:02:47;13.00;99.90
42201;DHT22;27869;51.442;7.540;2024-03-17T12:05:15;13.00;99.90
42201;DHT22;27869;51.442;7.540;2024-03-17T12:07:42;13.00;99.90
42201;DHT22;27869;51.442;7.540;2024-03-17T12:10:10;13.10;99.90
42201;DHT22;27869;51.442;7.540;2024-03-17T12:12:36;13.10;99.90
42201;DHT22;27869;51.442;7.540;2024-03-17T12:15:16;13.10;99.90
42201;DHT22;27869;51.442;7.540;2024-03-17T12:17:42;13.20;99.90
42201;DHT22;27869;51.442;7.540;2024-03-17T12:20:17;13.20;99.90
42201;DHT22;27869;51.442;7.540;2024-03-17T12:22:43;13.20;99.90
42201;DHT22;27869;51.442;7.540;2024-03-17T12:25:17;13.30;99.90
42201;DHT22;27869;51.442;7.540;2024-03-17T12:27:44;13.30;99.90
42201;DHT22;27869;51.442;7.540;2024-03-17T12:30:14;13.30;99.90
42201;DHT22;27869;51.442;7.540;2024-03-17T12:32:40;13.30;99.90
42201;DHT22;27869;51.442;7.540;2024-03-17T12:35:13;13.40;99.90
42201;DHT22;27869;51.442;7.540;2024-03-17T12:37:42;13.40;99.90
42201;DHT22;27869;51.442;7.540;2024-03-17T12:40:18;13.50;99.90
42201;DHT22;27869;51.442;7.540;2024-03-17T12:42:48;13.50;99.90
42201;DHT22;27869;51.442;7.540;2024-03-17T12:45:20;13.50;99.90
42201;DHT22;27869;51.442;7.540;2024-03-17T12:47:48;13.60;99.90
42201;DHT22;27869;51.442;7.540;2024-03-17T12:50:15;13.60;99.90
42201;DHT22;27869;51.442;7.540;2024-03-17T12:52:44;13.70;99.90
42201;DHT22;27869;51.442;7.540;2024-03-17T12:55:18;13.70;99.90
42201;DHT22;27869;51.442;7.540;2024-03-17T12:58:07;13.80;99.90
42201;DHT22;27869;51.442;7.540;2024-03-17T13:01:00;13.80;99.90
42201;DHT22;27869;51.442;7.540;2024-03-17T13:03:29;13.80;99.90
42201;DHT22;27869;51.442;7.540;2024-03-17T13:05:57;13.80;99.90
42201;DHT22;27869;51.442;7.540;2024-03-17T13:08:24;13.90;99.90
42201;DHT22;27869;51.442;7.540;2024-03-17T13:10:51;13.80;99.90
42201;DHT22;27869;51.442;7.540;2024-03-17T13:13:18;13.90;99.90
42201;DHT22;27869;51.442;7.540;2024-03-17T13:15:45;13.90;99.90
42201;DHT22;27869;51.442;7.540;2024-03-17T13:18:17;13.90;99.90
42201;DHT22;27869;51.442;7.540;2024-03-17T13:20:45;13.80;99.90
42201;DHT22;27869;51.442;7.540;2024-03-17T13:23:12;13.80;99.90
42201;DHT22;27869;51.442;7.540;2024-03-17T13:25:39;13.80;99.90
42201;DHT22;27869;51.442;7.540;2024-03-17T13:28:09;13.90;99.90
42201;DHT22;27869;51.442;7.540;2024-03-17T13:30:36;13.80;99.90
42201;DHT22;27869;51.442;7.540;2024-03-17T13:33:05;13.80;99.90
42201;DHT22;27869;51.442;7.540;2024-03-17T13:35:37;13.90;99.90
42201;DHT22;27869;51.442;7.540;2024-03-17T13:38:05;13.90;99.90
42201;DHT22;27869;51.442;7.540;2024-03-17T13:40:34;13.90;99.90
42201;DHT22;27869;51.442;7.540;2024-03-17T13:43:01;13.90;99.90
42201;DHT22;27869;51.442;7.540;2024-03-17T13:45:38;14.00;99.90
42201;DHT22;27869;51.442;7.540;2024-03-17T13:48:06;14.00;99.90
42201;DHT22;27869;51.442;7.540;2024-03-17T13:50:37;14.10;99.90
42201;DHT22;27869;51.442;7.540;2024-03-17T13:53:07;14.10;99.90
42201;DHT22;27869;51.442;7.540;2024-03-17T13:55:35;14.10;99.90
42201;DHT22;27869;51.442;7.540;2024-03-17T13:58:02;14.10;99.90
42201;DHT22;27869;51.442;7.540;2024-03-17T14:00:30;14.20;99.90
42201;DHT22;27869;51.442;7.540;2024-03-17T14:03:00;14.20;99.90
42201;DHT22;27869;51.442;7.540;2024-03-17T14:05:27;14.20;99.90
42201;DHT22;27869;51.442;7.540;2024-03-17T14:07:55;14.20;99.90
42201;DHT22;27869;51.442;7.540;2024-03-17T14:10:24;14.20;99.90
42201;DHT22;27869;51.442;7.540;2024-03-17T14:12:51;14.20;99.90
42201;DHT22;27869;51.442;7.540;2024-03-17T14:15:20;14.20;99.90
42201;DHT22;27869;51.442;7.540;2024-03-17T14:17:48;14.20;99.90
42201;DHT22;27869;51.442;7.540;2024-03-17T14:20:16;14.20;99.90
42201;DHT22;27869;51.442;7.540;2024-03-17T14:22:44;14.20;99.90
42201;DHT22;27869;51.442;7.540;2024-03-17T14:25:15;14.20;99.90
42201;DHT22;27869;51.442;7.540;2024-03-17T14:27:44;14.20;99.90
42201;DHT22;27869;51.442;7.540;2024-03-17T14:30:15;14.20;99.90
42201;DHT22;27869;51.442;7.540;2024-03-17T14:32:43;14.20;99.90
42201;DHT22;27869;51.442;7.540;2024-03-17T14:35:13;14.30;99.90
42201;DHT22;27869;51.442;7.540;2024-03-17T14:37:40;14.30;99.90
42201;DHT22;27869;51.442;7.540;2024-03-17T14:40:08;14.20;99.90
42201;DHT22;27869;51.442;7.540;2024-03-17T14:42:43;14.20;99.90
42201;DHT22;27869;51.442;7.540;2024-03-17T14:45:11;14.30;99.90
42201;DHT22;27869;51.442;7.540;2024-03-17T14:47:38;14.20;99.90
42201;DHT22;27869;51.442;7.540;2024-03-17T14:50:06;14.30;99.90
42201;DHT22;27869;51.442;7.540;2024-03-17T14:52:34;14.30;99.90
42201;DHT22;27869;51.442;7.540;2024-03-17T14:55:02;14.30;99.90
42201;DHT22;27869;51.442;7.540;2024-03-17T14:57:30;14.30;99.90
42201;DHT22;27869;51.442;7.540;2024-03-17T14:59:59;14.20;99.90
42201;DHT22;27869;51.442;7.540;2024-03-17T15:02:26;14.20;99.90
42201;DHT22;27869;51.442;7.540;2024-03-17T15:04:53;14.20;99.90
42201;DHT22;27869;51.442;7.540;2024-03-17T15:07:20;14.20;99.90
42201;DHT22;27869;51.442;7.540;2024-03-17T15:09:49;14.20;99.90
42201;DHT22;27869;51.442;7.540;2024-03-17T15:12:16;14.20;99.90
42201;DHT22;27869;51.442;7.540;2024-03-17T15:14:43;14.20;99.90
42201;DHT22;27869;51.442;7.540;2024-03-17T15:17:11;14.20;99.90
42201;DHT22;27869;51.442;7.540;2024-03-17T15:19:38;14.20;99.90
42201;DHT22;27869;51.442;7.540;2024-03-17T15:22:07;14.20;99.90
42201;DHT22;27869;51.442;7.540;2024-03-17T15:24:34;14.20;99.90
42201;DHT22;27869;51.442;7.540;2024-03-17T15:27:01;14.20;99.90
42201;DHT22;27869;51.442;7.540;2024-03-17T15:29:28;14.20;99.90
42201;DHT22;27869;51.442;7.540;2024-03-17T15:31:55;14.20;99.90
42201;DHT22;27869;51.442;7.540;2024-03-17T15:34:24;14.20;99.90
42201;DHT22;27869;51.442;7.540;2024-03-17T15:36:51;14.10;99.90
42201;DHT22;27869;51.442;7.540;2024-03-17T15:39:18;14.10;99.90
42201;DHT22;27869;51.442;7.540;2024-03-17T15:41:45;14.10;99.90
42201;DHT22;27869;51.442;7.540;2024-03-17T15:44:13;14.00;99.90
42201;DHT22;27869;51.442;7.540;2024-03-17T15:46:41;14.00;99.90